Wetaug, Illinois
Current Conditions -  °F | °C
As of 3:55 AM on Friday 19 Dec 2014 (Local Time) from KCIR Reporting Station
Overcast Overcast  
Wind Chill: 30°   Ceiling: 4200
Heat Index: 37°   Visibility: 7mi
Dew Point: 32°   Wind: 8mph
Humidity: 84%   Direction: 20°NNE
Pressure: 30.25"   Gusts: NA
Location:  37.3713°N, 89.1162°W
Report Text: KCIR 190955Z AUTO 02007KT 7SM OVC042 03/00 A3025 RMK AO2 T00250000
Loading
Personal Weather Stations






























Interactive Weather Map New forecast layout! Learn more

10-Day Weather Forecast

Advertisements
Track Severe Weather on mobile